TAM3903 SBRJ-SBSP
Flight info
| Callsign | TAM3903 |
|---|---|
| Flight time | 0h 52m |
| Altitude | 36000 |
| Route | NAXOP UZ45 IBDAL |
| Aircraft | A319/M-SDE3FGHIRWY/LB1 |
Departure
| Time | 2026-05-06 17:10 |
|---|---|
| Airport | Santos Dumont Airport (SBRJ) |
Arrival
| Time | 2026-05-06 18:02 |
|---|---|
| Airport | Congonhas–Deputado Freitas Nobre Airport (SBSP) |
| Time | Latitude | Longitude | Altitude | Speed | Heading |
|---|---|---|---|---|---|
| 2026-05-06 16:42 | -22.91351 | -43.16575 | 22 ft | 0 kts | 268° |
| 2026-05-06 17:03 | -22.91351 | -43.16558 | 22 ft | 4 kts | 269° |
| 2026-05-06 17:04 | -22.91351 | -43.16530 | 22 ft | 4 kts | 285° |
| 2026-05-06 17:04 | -22.91363 | -43.16508 | 24 ft | 4 kts | 332° |
| 2026-05-06 17:04 | -22.91380 | -43.16502 | 22 ft | 1 kts | 355° |
| 2026-05-06 17:04 | -22.91383 | -43.16502 | 22 ft | 0 kts | 355° |
| 2026-05-06 17:06 | -22.91362 | -43.16503 | 24 ft | 8 kts | 355° |
| 2026-05-06 17:06 | -22.91274 | -43.16509 | 22 ft | 17 kts | 356° |
| 2026-05-06 17:07 | -22.91134 | -43.16519 | 25 ft | 22 kts | 354° |
| 2026-05-06 17:07 | -22.90973 | -43.16541 | 22 ft | 25 kts | 356° |
| 2026-05-06 17:07 | -22.90796 | -43.16542 | 22 ft | 27 kts | 7° |
| 2026-05-06 17:07 | -22.90609 | -43.16552 | 22 ft | 24 kts | 356° |
| 2026-05-06 17:08 | -22.90504 | -43.16541 | 23 ft | 12 kts | 57° |
| 2026-05-06 17:08 | -22.90495 | -43.16447 | 23 ft | 14 kts | 87° |
| 2026-05-06 17:08 | -22.90538 | -43.16390 | 26 ft | 7 kts | 178° |
| 2026-05-06 17:08 | -22.90550 | -43.16389 | 24 ft | 0 kts | 176° |
| 2026-05-06 17:09 | -22.90553 | -43.16387 | 24 ft | 2 kts | 156° |
| 2026-05-06 17:09 | -22.90562 | -43.16394 | 24 ft | 2 kts | 285° |
| 2026-05-06 17:09 | -22.90517 | -43.16392 | 24 ft | 11 kts | 4° |
| 2026-05-06 17:09 | -22.90507 | -43.16323 | 25 ft | 17 kts | 152° |
| 2026-05-06 17:10 | -22.90878 | -43.16294 | 24 ft | 101 kts | 176° |
| 2026-05-06 17:10 | -22.91796 | -43.16234 | 347 ft | 143 kts | 174° |
| 2026-05-06 17:10 | -22.92714 | -43.15827 | 1055 ft | 149 kts | 143° |
| 2026-05-06 17:10 | -22.93487 | -43.15076 | 1579 ft | 155 kts | 136° |
| 2026-05-06 17:11 | -22.94308 | -43.14206 | 1816 ft | 175 kts | 134° |
| 2026-05-06 17:11 | -22.95211 | -43.13219 | 2193 ft | 192 kts | 133° |
| 2026-05-06 17:11 | -22.96237 | -43.12175 | 2548 ft | 215 kts | 136° |
| 2026-05-06 17:11 | -22.97420 | -43.11073 | 3123 ft | 230 kts | 137° |
| 2026-05-06 17:12 | -22.98720 | -43.10022 | 3913 ft | 238 kts | 153° |
| 2026-05-06 17:12 | -23.00370 | -43.09798 | 4706 ft | 252 kts | 189° |
| 2026-05-06 17:12 | -23.02033 | -43.10634 | 5212 ft | 276 kts | 214° |
| 2026-05-06 17:12 | -23.03582 | -43.11920 | 6088 ft | 283 kts | 219° |
| 2026-05-06 17:13 | -23.05082 | -43.13336 | 7004 ft | 288 kts | 221° |
| 2026-05-06 17:13 | -23.06586 | -43.14794 | 7933 ft | 291 kts | 221° |
| 2026-05-06 17:13 | -23.08123 | -43.16248 | 8860 ft | 295 kts | 219° |
| 2026-05-06 17:13 | -23.09704 | -43.17685 | 9780 ft | 298 kts | 218° |
| 2026-05-06 17:14 | -23.11333 | -43.19129 | 10419 ft | 312 kts | 218° |
| 2026-05-06 17:14 | -23.13082 | -43.20658 | 10783 ft | 332 kts | 218° |
| 2026-05-06 17:14 | -23.14909 | -43.22245 | 11426 ft | 339 kts | 218° |
| 2026-05-06 17:14 | -23.16766 | -43.23856 | 12165 ft | 344 kts | 218° |
| 2026-05-06 17:15 | -23.18642 | -43.25485 | 12920 ft | 347 kts | 218° |
| 2026-05-06 17:15 | -23.20540 | -43.27135 | 13647 ft | 351 kts | 218° |
| 2026-05-06 17:15 | -23.22458 | -43.28805 | 14334 ft | 355 kts | 219° |
| 2026-05-06 17:15 | -23.24392 | -43.30490 | 15013 ft | 357 kts | 218° |
| 2026-05-06 17:16 | -23.26331 | -43.32179 | 15712 ft | 358 kts | 218° |
| 2026-05-06 17:16 | -23.28273 | -43.33876 | 16400 ft | 359 kts | 218° |
| 2026-05-06 17:16 | -23.30218 | -43.35582 | 17130 ft | 359 kts | 218° |
| 2026-05-06 17:16 | -23.32054 | -43.37436 | 17831 ft | 362 kts | 228° |
| 2026-05-06 17:17 | -23.33497 | -43.39687 | 18486 ft | 366 kts | 240° |
| 2026-05-06 17:17 | -23.34459 | -43.42254 | 19059 ft | 369 kts | 253° |
| 2026-05-06 17:17 | -23.35096 | -43.44975 | 19619 ft | 372 kts | 255° |
| 2026-05-06 17:17 | -23.35732 | -43.47713 | 20200 ft | 375 kts | 254° |
| 2026-05-06 17:18 | -23.36376 | -43.50468 | 20803 ft | 376 kts | 255° |
| 2026-05-06 17:18 | -23.37028 | -43.53239 | 21378 ft | 379 kts | 255° |
| 2026-05-06 17:18 | -23.37687 | -43.56029 | 21940 ft | 382 kts | 255° |
| 2026-05-06 17:18 | -23.38347 | -43.58839 | 22512 ft | 385 kts | 255° |
| 2026-05-06 17:19 | -23.39008 | -43.61668 | 23098 ft | 386 kts | 255° |
| 2026-05-06 17:19 | -23.39673 | -43.64517 | 23648 ft | 390 kts | 255° |
| 2026-05-06 17:19 | -23.40343 | -43.67389 | 24110 ft | 393 kts | 255° |
| 2026-05-06 17:19 | -23.41019 | -43.70288 | 24579 ft | 396 kts | 255° |
| 2026-05-06 17:20 | -23.41701 | -43.73203 | 25062 ft | 398 kts | 255° |
| 2026-05-06 17:20 | -23.42385 | -43.76133 | 25528 ft | 401 kts | 255° |
| 2026-05-06 17:20 | -23.43069 | -43.79082 | 26002 ft | 403 kts | 255° |
| 2026-05-06 17:20 | -23.43757 | -43.82044 | 26476 ft | 404 kts | 255° |
| 2026-05-06 17:21 | -23.44446 | -43.85019 | 26921 ft | 406 kts | 255° |
| 2026-05-06 17:21 | -23.45140 | -43.88016 | 27360 ft | 409 kts | 255° |
| 2026-05-06 17:21 | -23.45837 | -43.91026 | 27802 ft | 411 kts | 255° |
| 2026-05-06 17:21 | -23.46540 | -43.94053 | 28241 ft | 413 kts | 254° |
| 2026-05-06 17:22 | -23.47248 | -43.97096 | 28682 ft | 416 kts | 254° |
| 2026-05-06 17:22 | -23.47958 | -44.00156 | 29136 ft | 418 kts | 254° |
| 2026-05-06 17:22 | -23.48668 | -44.03233 | 29544 ft | 420 kts | 254° |
| 2026-05-06 17:22 | -23.49376 | -44.06324 | 29961 ft | 422 kts | 254° |
| 2026-05-06 17:23 | -23.50085 | -44.09433 | 30116 ft | 420 kts | 254° |
| 2026-05-06 17:23 | -23.50778 | -44.12468 | 30139 ft | 405 kts | 254° |
| 2026-05-06 17:23 | -23.51222 | -44.14412 | 30137 ft | 395 kts | 254° |
| 2026-05-06 17:23 | -23.51875 | -44.17267 | 30135 ft | 383 kts | 254° |
| 2026-05-06 17:24 | -23.52517 | -44.20061 | 30135 ft | 378 kts | 254° |
| 2026-05-06 17:24 | -23.53785 | -44.25592 | 30135 ft | 377 kts | 253° |
| 2026-05-06 17:24 | -23.54648 | -44.29341 | 30137 ft | 393 kts | 253° |
| 2026-05-06 17:25 | -23.55104 | -44.31316 | 30137 ft | 402 kts | 253° |
| 2026-05-06 17:25 | -23.55795 | -44.34316 | 30136 ft | 414 kts | 253° |
| 2026-05-06 17:25 | -23.56504 | -44.37411 | 30133 ft | 427 kts | 254° |
| 2026-05-06 17:26 | -23.57967 | -44.43840 | 30135 ft | 447 kts | 254° |
| 2026-05-06 17:26 | -23.59482 | -44.50517 | 30130 ft | 457 kts | 254° |
| 2026-05-06 17:27 | -23.61014 | -44.57261 | 30134 ft | 459 kts | 254° |
| 2026-05-06 17:27 | -23.62538 | -44.64008 | 30133 ft | 458 kts | 253° |
| 2026-05-06 17:28 | -23.64053 | -44.70705 | 29803 ft | 446 kts | 253° |
| 2026-05-06 17:28 | -23.64777 | -44.73929 | 29658 ft | 430 kts | 253° |
| 2026-05-06 17:28 | -23.65476 | -44.77046 | 29530 ft | 416 kts | 253° |
| 2026-05-06 17:28 | -23.66153 | -44.80062 | 29298 ft | 404 kts | 253° |
| 2026-05-06 17:29 | -23.66814 | -44.83004 | 29018 ft | 394 kts | 253° |
| 2026-05-06 17:29 | -23.67461 | -44.85874 | 28759 ft | 385 kts | 253° |
| 2026-05-06 17:29 | -23.68096 | -44.88685 | 28492 ft | 378 kts | 253° |
| 2026-05-06 17:29 | -23.68718 | -44.91440 | 28232 ft | 371 kts | 253° |
| 2026-05-06 17:30 | -23.69325 | -44.94126 | 27981 ft | 368 kts | 253° |
| 2026-05-06 17:30 | -23.69935 | -44.96830 | 27732 ft | 366 kts | 253° |
| 2026-05-06 17:30 | -23.70539 | -44.99526 | 27484 ft | 365 kts | 253° |
| 2026-05-06 17:30 | -23.71140 | -45.02214 | 27231 ft | 364 kts | 253° |
| 2026-05-06 17:31 | -23.71739 | -45.04892 | 26993 ft | 363 kts | 253° |
| 2026-05-06 17:31 | -23.72337 | -45.07567 | 26742 ft | 362 kts | 253° |
| 2026-05-06 17:31 | -23.72933 | -45.10234 | 26496 ft | 361 kts | 254° |
| 2026-05-06 17:31 | -23.73526 | -45.12896 | 26255 ft | 361 kts | 254° |
| 2026-05-06 17:32 | -23.74118 | -45.15553 | 26015 ft | 360 kts | 254° |
| 2026-05-06 17:32 | -23.74709 | -45.18201 | 25778 ft | 359 kts | 254° |
| 2026-05-06 17:32 | -23.75298 | -45.20847 | 25537 ft | 358 kts | 254° |
| 2026-05-06 17:32 | -23.75884 | -45.23487 | 25305 ft | 357 kts | 254° |
| 2026-05-06 17:33 | -23.76470 | -45.26121 | 25071 ft | 357 kts | 254° |
| 2026-05-06 17:33 | -23.77053 | -45.28748 | 24838 ft | 356 kts | 255° |
| 2026-05-06 17:33 | -23.77633 | -45.31370 | 24612 ft | 355 kts | 255° |
| 2026-05-06 17:33 | -23.78209 | -45.33987 | 24386 ft | 354 kts | 255° |
| 2026-05-06 17:34 | -23.78784 | -45.36602 | 24161 ft | 354 kts | 255° |
| 2026-05-06 17:34 | -23.79360 | -45.39214 | 23938 ft | 353 kts | 255° |
| 2026-05-06 17:34 | -23.79773 | -45.41856 | 23712 ft | 354 kts | 264° |
| 2026-05-06 17:34 | -23.79910 | -45.44540 | 23454 ft | 354 kts | 265° |
| 2026-05-06 17:35 | -23.80047 | -45.47219 | 23187 ft | 353 kts | 265° |
| 2026-05-06 17:35 | -23.80187 | -45.49889 | 22932 ft | 352 kts | 265° |
| 2026-05-06 17:35 | -23.80325 | -45.52556 | 22676 ft | 351 kts | 265° |
| 2026-05-06 17:36 | -23.80600 | -45.57868 | 22170 ft | 349 kts | 265° |
| 2026-05-06 17:36 | -23.80737 | -45.60509 | 21917 ft | 348 kts | 265° |
| 2026-05-06 17:36 | -23.80874 | -45.63142 | 21667 ft | 347 kts | 265° |
| 2026-05-06 17:36 | -23.81010 | -45.65768 | 21419 ft | 346 kts | 265° |
| 2026-05-06 17:37 | -23.81142 | -45.68389 | 21175 ft | 345 kts | 265° |
| 2026-05-06 17:37 | -23.81271 | -45.71004 | 20927 ft | 344 kts | 265° |
| 2026-05-06 17:37 | -23.81402 | -45.73610 | 20687 ft | 343 kts | 265° |
| 2026-05-06 17:37 | -23.81532 | -45.76210 | 20452 ft | 343 kts | 265° |
| 2026-05-06 17:38 | -23.81661 | -45.78804 | 20219 ft | 342 kts | 265° |
| 2026-05-06 17:38 | -23.81790 | -45.81392 | 19982 ft | 341 kts | 264° |
| 2026-05-06 17:38 | -23.81919 | -45.83975 | 19750 ft | 340 kts | 264° |
| 2026-05-06 17:38 | -23.82050 | -45.86572 | 19518 ft | 348 kts | 264° |
| 2026-05-06 17:39 | -23.82182 | -45.89197 | 19293 ft | 352 kts | 264° |
| 2026-05-06 17:39 | -23.82323 | -45.91970 | 19062 ft | 380 kts | 265° |
| 2026-05-06 17:39 | -23.82473 | -45.94921 | 18834 ft | 396 kts | 265° |
| 2026-05-06 17:39 | -23.82621 | -45.97940 | 18605 ft | 399 kts | 265° |
| 2026-05-06 17:40 | -23.82767 | -46.00963 | 18383 ft | 399 kts | 265° |
| 2026-05-06 17:40 | -23.82914 | -46.03989 | 17991 ft | 398 kts | 265° |
| 2026-05-06 17:40 | -23.83058 | -46.07000 | 17622 ft | 396 kts | 265° |
| 2026-05-06 17:40 | -23.83198 | -46.09999 | 17237 ft | 395 kts | 265° |
| 2026-05-06 17:41 | -23.83335 | -46.12987 | 16835 ft | 393 kts | 265° |
| 2026-05-06 17:41 | -23.83472 | -46.15945 | 16407 ft | 385 kts | 265° |
| 2026-05-06 17:41 | -23.83607 | -46.18831 | 16044 ft | 375 kts | 265° |
| 2026-05-06 17:41 | -23.83740 | -46.21640 | 15724 ft | 366 kts | 265° |
| 2026-05-06 17:42 | -23.83872 | -46.24380 | 15442 ft | 356 kts | 265° |
| 2026-05-06 17:42 | -23.83998 | -46.27043 | 15147 ft | 348 kts | 265° |
| 2026-05-06 17:42 | -23.84123 | -46.29670 | 14722 ft | 345 kts | 265° |
| 2026-05-06 17:42 | -23.84246 | -46.32262 | 14384 ft | 339 kts | 265° |
| 2026-05-06 17:43 | -23.84367 | -46.34819 | 14044 ft | 335 kts | 266° |
| 2026-05-06 17:43 | -23.84488 | -46.37342 | 13700 ft | 330 kts | 266° |
| 2026-05-06 17:43 | -23.84603 | -46.39824 | 13386 ft | 325 kts | 266° |
| 2026-05-06 17:43 | -23.84718 | -46.42272 | 13086 ft | 321 kts | 266° |
| 2026-05-06 17:44 | -23.84833 | -46.44696 | 12767 ft | 318 kts | 266° |
| 2026-05-06 17:44 | -23.84944 | -46.47099 | 12458 ft | 315 kts | 266° |
| 2026-05-06 17:44 | -23.85056 | -46.49477 | 12168 ft | 312 kts | 267° |
| 2026-05-06 17:44 | -23.85165 | -46.51843 | 11872 ft | 311 kts | 267° |
| 2026-05-06 17:45 | -23.85269 | -46.54197 | 11561 ft | 309 kts | 267° |
| 2026-05-06 17:45 | -23.85374 | -46.56532 | 11259 ft | 307 kts | 268° |
| 2026-05-06 17:45 | -23.85455 | -46.58859 | 10965 ft | 305 kts | 273° |
| 2026-05-06 17:45 | -23.85071 | -46.61112 | 10680 ft | 301 kts | 291° |
| 2026-05-06 17:46 | -23.84119 | -46.63080 | 10351 ft | 297 kts | 308° |
| 2026-05-06 17:46 | -23.82637 | -46.64682 | 9864 ft | 296 kts | 327° |
| 2026-05-06 17:46 | -23.80941 | -46.65854 | 9563 ft | 290 kts | 329° |
| 2026-05-06 17:46 | -23.79248 | -46.67017 | 9270 ft | 285 kts | 330° |
| 2026-05-06 17:47 | -23.77580 | -46.68176 | 9015 ft | 283 kts | 329° |
| 2026-05-06 17:47 | -23.75925 | -46.69333 | 8990 ft | 283 kts | 329° |
| 2026-05-06 17:47 | -23.74264 | -46.70491 | 9008 ft | 284 kts | 329° |
| 2026-05-06 17:47 | -23.72596 | -46.71652 | 9018 ft | 284 kts | 329° |
| 2026-05-06 17:48 | -23.70925 | -46.72813 | 8848 ft | 286 kts | 329° |
| 2026-05-06 17:48 | -23.69229 | -46.73990 | 8524 ft | 284 kts | 329° |
| 2026-05-06 17:48 | -23.67567 | -46.75142 | 8237 ft | 283 kts | 329° |
| 2026-05-06 17:48 | -23.65931 | -46.76276 | 7956 ft | 281 kts | 329° |
| 2026-05-06 17:49 | -23.64265 | -46.77428 | 7654 ft | 279 kts | 329° |
| 2026-05-06 17:49 | -23.62648 | -46.78546 | 7359 ft | 279 kts | 329° |
| 2026-05-06 17:49 | -23.61012 | -46.79676 | 7049 ft | 280 kts | 329° |
| 2026-05-06 17:49 | -23.59371 | -46.80809 | 6739 ft | 277 kts | 330° |
| 2026-05-06 17:50 | -23.57614 | -46.81474 | 6413 ft | 263 kts | 0° |
| 2026-05-06 17:50 | -23.55911 | -46.81030 | 6121 ft | 248 kts | 33° |
| 2026-05-06 17:50 | -23.54743 | -46.79755 | 5838 ft | 232 kts | 58° |
| 2026-05-06 17:50 | -23.53904 | -46.78312 | 5593 ft | 219 kts | 59° |
| 2026-05-06 17:51 | -23.53146 | -46.76913 | 5338 ft | 206 kts | 68° |
| 2026-05-06 17:51 | -23.52806 | -46.75461 | 5157 ft | 197 kts | 84° |
| 2026-05-06 17:51 | -23.52894 | -46.73966 | 4765 ft | 198 kts | 102° |
| 2026-05-06 17:51 | -23.53408 | -46.72617 | 4535 ft | 188 kts | 121° |
| 2026-05-06 17:52 | -23.54218 | -46.71568 | 4340 ft | 174 kts | 136° |
| 2026-05-06 17:52 | -23.55167 | -46.70835 | 4145 ft | 163 kts | 146° |
| 2026-05-06 17:52 | -23.56098 | -46.70194 | 3963 ft | 151 kts | 145° |
| 2026-05-06 17:52 | -23.56965 | -46.69592 | 3803 ft | 143 kts | 146° |
| 2026-05-06 17:53 | -23.57788 | -46.69023 | 3619 ft | 139 kts | 147° |
| 2026-05-06 17:53 | -23.58596 | -46.68464 | 3452 ft | 138 kts | 147° |
| 2026-05-06 17:53 | -23.59391 | -46.67913 | 3293 ft | 136 kts | 147° |
| 2026-05-06 17:53 | -23.60197 | -46.67358 | 3081 ft | 136 kts | 146° |
| 2026-05-06 17:54 | -23.60997 | -46.66800 | 2900 ft | 138 kts | 145° |
| 2026-05-06 17:54 | -23.61817 | -46.66237 | 2690 ft | 140 kts | 144° |
| 2026-05-06 17:54 | -23.62594 | -46.65699 | 2610 ft | 119 kts | 145° |
| 2026-05-06 17:54 | -23.63317 | -46.65192 | 2882 ft | 136 kts | 144° |
| 2026-05-06 17:55 | -23.64195 | -46.64576 | 3379 ft | 162 kts | 146° |
| 2026-05-06 17:55 | -23.65405 | -46.64280 | 3796 ft | 194 kts | 184° |
| 2026-05-06 17:55 | -23.66680 | -46.64898 | 3945 ft | 216 kts | 219° |
| 2026-05-06 17:55 | -23.67464 | -46.66292 | 3993 ft | 221 kts | 254° |
| 2026-05-06 17:56 | -23.67410 | -46.67954 | 4004 ft | 221 kts | 284° |
| 2026-05-06 17:56 | -23.66761 | -46.69456 | 4011 ft | 221 kts | 311° |
| 2026-05-06 17:56 | -23.65573 | -46.70503 | 4018 ft | 218 kts | 327° |
| 2026-05-06 17:56 | -23.64354 | -46.71391 | 4004 ft | 202 kts | 328° |
| 2026-05-06 17:57 | -23.63239 | -46.72203 | 4005 ft | 186 kts | 328° |
| 2026-05-06 17:57 | -23.62184 | -46.72989 | 4009 ft | 182 kts | 328° |
| 2026-05-06 17:57 | -23.61140 | -46.73755 | 3998 ft | 179 kts | 327° |
| 2026-05-06 17:57 | -23.60096 | -46.74507 | 4013 ft | 179 kts | 328° |
| 2026-05-06 17:58 | -23.59061 | -46.75253 | 4010 ft | 179 kts | 328° |
| 2026-05-06 17:58 | -23.58036 | -46.76000 | 4000 ft | 173 kts | 329° |
| 2026-05-06 17:58 | -23.56978 | -46.76281 | 3991 ft | 150 kts | 13° |
| 2026-05-06 17:58 | -23.56149 | -46.75720 | 4007 ft | 138 kts | 50° |
| 2026-05-06 17:59 | -23.55639 | -46.74867 | 3983 ft | 133 kts | 65° |
| 2026-05-06 17:59 | -23.55248 | -46.73965 | 3987 ft | 131 kts | 66° |
| 2026-05-06 17:59 | -23.54875 | -46.73045 | 3981 ft | 133 kts | 67° |
| 2026-05-06 17:59 | -23.54730 | -46.72060 | 3976 ft | 135 kts | 95° |
| 2026-05-06 18:00 | -23.55048 | -46.71104 | 3982 ft | 135 kts | 124° |
| 2026-05-06 18:00 | -23.55756 | -46.70424 | 3949 ft | 138 kts | 147° |
| 2026-05-06 18:00 | -23.56569 | -46.69865 | 3848 ft | 137 kts | 146° |
| 2026-05-06 18:00 | -23.57377 | -46.69307 | 3704 ft | 137 kts | 146° |
| 2026-05-06 18:01 | -23.58175 | -46.68755 | 3545 ft | 136 kts | 146° |
| 2026-05-06 18:01 | -23.58967 | -46.68205 | 3373 ft | 134 kts | 146° |
| 2026-05-06 18:01 | -23.59744 | -46.67659 | 3181 ft | 132 kts | 146° |
| 2026-05-06 18:01 | -23.60529 | -46.67126 | 3015 ft | 135 kts | 146° |
| 2026-05-06 18:02 | -23.61325 | -46.66572 | 2814 ft | 136 kts | 144° |
| 2026-05-06 18:02 | -23.62141 | -46.66013 | 2617 ft | 138 kts | 145° |
| 2026-05-06 18:02 | -23.62841 | -46.65525 | 2608 ft | 93 kts | 148° |
| 2026-05-06 18:02 | -23.63132 | -46.65325 | 2610 ft | 17 kts | 146° |
| 2026-05-06 18:03 | -23.63243 | -46.65247 | 2610 ft | 21 kts | 148° |
| 2026-05-06 18:03 | -23.63385 | -46.65212 | 2605 ft | 21 kts | 203° |
| 2026-05-06 18:03 | -23.63359 | -46.65311 | 2602 ft | 18 kts | 327° |
| 2026-05-06 18:03 | -23.63247 | -46.65389 | 2602 ft | 20 kts | 327° |
| 2026-05-06 18:04 | -23.63124 | -46.65473 | 2602 ft | 22 kts | 329° |
| 2026-05-06 18:04 | -23.62983 | -46.65537 | 2603 ft | 23 kts | 332° |
| 2026-05-06 18:04 | -23.62842 | -46.65633 | 2603 ft | 25 kts | 328° |
| 2026-05-06 18:04 | -23.62725 | -46.65714 | 2602 ft | 15 kts | 327° |
| 2026-05-06 18:05 | -23.62647 | -46.65772 | 2602 ft | 6 kts | 305° |
| 2026-05-06 18:05 | -23.62647 | -46.65780 | 2602 ft | 2 kts | 268° |
| 2026-05-06 18:05 | -23.62664 | -46.65802 | 2601 ft | 6 kts | 235° |
| 2026-05-06 18:05 | -23.62685 | -46.65840 | 2601 ft | 4 kts | 237° |
| 2026-05-06 18:06 | -23.62689 | -46.65846 | 2601 ft | 1 kts | 237° |
| 2026-05-06 18:06 | -23.62690 | -46.65847 | 2601 ft | 0 kts | 237° |